Austinville, Pennsylvania
Current Conditions -  °F | °C
As of 12:53 PM on Saturday 25 Oct 2014 (Local Time) from KELM Reporting Station
Clear Clear  
Wind Chill: 65°   Ceiling: Unl
Heat Index: 65°   Visibility: 10mi
Dew Point: 46°   Wind: 12mph
Humidity: 50%   Direction: 240°WSW
Pressure: 29.72"   Gusts: NA
Location:  41.8495°N, 76.7925°W
Report Text: KELM 251653Z 24010KT 10SM CLR 18/08 A2972 RMK AO2 SLP063 T01830078
Loading
Personal Weather Stations






























Interactive Weather Map
Tropical Storm Tracking
New forecast layout! Learn more

10-Day Weather Forecast

Advertisements
Track Severe Weather on mobile